createdAt,value
2018-10-06T00:01:47.799Z,3.50
2018-10-06T00:04:18.551Z,5.67
2018-10-06T00:06:49.403Z,3.70
2018-10-06T00:09:20.155Z,4.27
2018-10-06T00:11:50.952Z,2.97
2018-10-06T00:14:21.846Z,3.20
2018-10-06T00:16:52.782Z,5.67
2018-10-06T00:19:23.537Z,3.47
2018-10-06T00:21:54.380Z,8.10
2018-10-06T00:24:25.250Z,5.03
2018-10-06T00:26:56.150Z,6.90
2018-10-06T00:29:26.934Z,3.50
2018-10-06T00:31:58.030Z,3.43
2018-10-06T00:34:28.870Z,8.50
2018-10-06T00:36:59.715Z,3.77
2018-10-06T00:39:30.512Z,5.63
2018-10-06T00:42:01.362Z,4.97
2018-10-06T00:44:32.142Z,5.57
2018-10-06T00:47:03.075Z,4.07
2018-10-06T00:49:33.882Z,6.40
2018-10-06T00:52:04.711Z,4.17
2018-10-06T00:54:35.463Z,4.17
2018-10-06T00:57:06.248Z,7.40
2018-10-06T00:59:36.975Z,3.90
2018-10-06T01:02:07.786Z,3.07
2018-10-06T01:04:38.870Z,3.23
2018-10-06T01:07:09.682Z,6.70
2018-10-06T01:09:40.426Z,3.93
2018-10-06T01:12:11.230Z,4.50
2018-10-06T01:14:42.023Z,7.53
2018-10-06T01:17:12.793Z,5.17
2018-10-06T01:19:44.003Z,7.87
2018-10-06T01:22:14.791Z,5.33
2018-10-06T01:24:45.646Z,6.07
2018-10-06T01:27:16.382Z,3.97
2018-10-06T01:29:47.130Z,5.47
2018-10-06T01:32:17.892Z,4.10
2018-10-06T01:34:48.640Z,4.37
2018-10-06T01:37:19.522Z,3.37
2018-10-06T01:39:50.286Z,4.03
2018-10-06T01:42:21.110Z,4.13
2018-10-06T01:44:51.841Z,4.43
2018-10-06T01:47:22.671Z,4.30
2018-10-06T01:49:53.496Z,4.20
2018-10-06T01:52:24.497Z,3.70
2018-10-06T01:54:55.269Z,3.40
2018-10-06T01:57:26.122Z,2.80
2018-10-06T01:59:56.942Z,5.13
2018-10-06T02:02:27.943Z,4.37
2018-10-06T02:04:58.804Z,4.13
2018-10-06T02:07:29.610Z,3.03
2018-10-06T02:10:00.531Z,5.47
2018-10-06T02:12:31.406Z,2.77
2018-10-06T02:15:02.211Z,3.50
2018-10-06T02:17:33.030Z,2.50
2018-10-06T02:20:03.863Z,3.50
2018-10-06T02:22:34.612Z,4.50
2018-10-06T02:25:05.991Z,4.00
2018-10-06T02:27:36.850Z,7.53
2018-10-06T02:30:07.823Z,3.23
2018-10-06T02:32:38.491Z,3.10
2018-10-06T02:35:09.262Z,2.70
2018-10-06T02:37:40.051Z,2.40
2018-10-06T02:40:10.817Z,3.97
2018-10-06T02:42:41.610Z,3.43
2018-10-06T02:45:12.524Z,4.43
2018-10-06T02:47:43.349Z,4.00
2018-10-06T02:50:14.146Z,5.87
2018-10-06T02:52:45.010Z,4.60
2018-10-06T02:55:15.808Z,4.33
2018-10-06T02:57:46.674Z,3.13
2018-10-06T03:00:17.353Z,2.97
2018-10-06T03:02:48.169Z,3.67
2018-10-06T03:05:18.921Z,3.47
2018-10-06T03:07:49.730Z,2.60
2018-10-06T03:10:20.503Z,4.30
2018-10-06T03:12:55.422Z,3.70
2018-10-06T03:15:26.270Z,7.30
2018-10-06T03:17:57.215Z,2.83
2018-10-06T03:20:27.954Z,3.23
2018-10-06T03:22:58.814Z,2.87
2018-10-06T03:25:29.577Z,2.77
2018-10-06T03:28:00.435Z,4.67
2018-10-06T03:30:31.175Z,2.67
2018-10-06T03:33:02.018Z,9.17
2018-10-06T03:35:32.754Z,3.67
2018-10-06T03:38:03.575Z,2.93
2018-10-06T03:40:34.380Z,3.03
2018-10-06T03:43:05.233Z,3.07
2018-10-06T03:45:36.392Z,5.43
2018-10-06T03:48:07.150Z,3.83
2018-10-06T03:50:37.849Z,4.13
2018-10-06T03:53:08.915Z,3.73
2018-10-06T03:55:39.654Z,2.90
2018-10-06T03:58:10.327Z,2.63
2018-10-06T04:00:41.014Z,2.60
2018-10-06T04:03:11.689Z,2.97
2018-10-06T04:05:42.438Z,4.00
2018-10-06T04:08:13.237Z,4.50
2018-10-06T04:10:44.038Z,3.07
2018-10-06T04:13:14.848Z,3.97
2018-10-06T04:15:46.113Z,3.10
2018-10-06T04:18:16.955Z,2.80
2018-10-06T04:20:47.715Z,3.20
2018-10-06T04:23:18.558Z,4.00
2018-10-06T04:25:49.354Z,3.10
2018-10-06T04:28:20.197Z,2.50
2018-10-06T04:30:51.019Z,4.53
2018-10-06T04:33:22.086Z,2.90
2018-10-06T04:35:52.888Z,3.57
2018-10-06T04:38:23.795Z,2.60
2018-10-06T04:40:54.586Z,3.10
2018-10-06T04:43:25.369Z,3.73
2018-10-06T04:45:56.275Z,2.93
2018-10-06T04:48:27.174Z,2.70
2018-10-06T04:50:57.899Z,2.63
2018-10-06T04:53:28.770Z,2.83
2018-10-06T04:55:59.724Z,3.07
2018-10-06T04:58:30.491Z,3.13
2018-10-06T05:01:01.183Z,4.13
2018-10-06T05:03:32.000Z,3.63
2018-10-06T05:06:02.775Z,2.90
2018-10-06T05:08:33.500Z,3.70
2018-10-06T05:11:04.296Z,4.00
2018-10-06T05:13:34.975Z,6.40
2018-10-06T05:16:08.495Z,19.83
2018-10-06T05:18:39.227Z,17.83
2018-10-06T05:21:09.867Z,16.47
2018-10-06T05:23:40.952Z,13.00
2018-10-06T05:26:11.618Z,8.30
2018-10-06T05:28:42.382Z,5.23
2018-10-06T05:31:13.074Z,6.93
2018-10-06T05:33:43.793Z,2.83
2018-10-06T05:36:14.426Z,3.77
2018-10-06T05:38:45.099Z,5.73
2018-10-06T05:41:15.815Z,5.77
2018-10-06T05:43:46.638Z,6.93
2018-10-06T05:46:17.333Z,3.73
2018-10-06T05:48:48.006Z,3.03
2018-10-06T05:51:18.797Z,3.80
2018-10-06T05:53:49.479Z,2.80
2018-10-06T05:56:20.144Z,5.90
2018-10-06T05:58:50.938Z,6.43
2018-10-06T06:01:24.085Z,4.33
2018-10-06T06:03:55.038Z,4.07
2018-10-06T06:06:25.787Z,3.57
2018-10-06T06:08:56.575Z,4.90
2018-10-06T06:11:27.340Z,7.90
2018-10-06T06:13:58.052Z,4.70
2018-10-06T06:16:28.704Z,6.93
2018-10-06T06:18:59.355Z,3.90
2018-10-06T06:21:29.967Z,6.90
2018-10-06T06:24:02.147Z,6.17
2018-10-06T06:26:32.914Z,7.23
2018-10-06T06:29:03.811Z,3.80
2018-10-06T06:31:46.838Z,4.00
2018-10-06T06:34:27.173Z,5.00
2018-10-06T06:37:01.840Z,3.47
2018-10-06T06:39:32.465Z,6.70
2018-10-06T06:42:03.469Z,4.70
2018-10-06T06:44:34.612Z,6.17
2018-10-06T06:47:05.435Z,7.60
2018-10-06T06:49:36.765Z,6.93
2018-10-06T06:52:07.746Z,6.07
2018-10-06T06:54:38.627Z,6.13
2018-10-06T06:57:09.416Z,8.27
2018-10-06T06:59:40.215Z,5.03
2018-10-06T07:02:10.822Z,7.93
2018-10-06T07:04:41.626Z,3.60
2018-10-06T07:07:12.324Z,5.77
2018-10-06T07:09:43.014Z,2.97
2018-10-06T07:12:13.714Z,3.17
2018-10-06T07:14:45.742Z,4.30
2018-10-06T07:17:16.371Z,3.87
2018-10-06T07:19:47.157Z,5.10
2018-10-06T07:22:18.557Z,5.27
2018-10-06T07:24:50.176Z,3.57
2018-10-06T07:27:20.837Z,5.57
2018-10-06T07:29:51.590Z,4.13
2018-10-06T07:32:22.454Z,3.23
2018-10-06T07:34:53.215Z,3.47
2018-10-06T07:37:23.905Z,4.33
2018-10-06T07:39:55.015Z,3.70
2018-10-06T07:42:25.735Z,7.13
2018-10-06T07:44:56.505Z,5.50
2018-10-06T07:47:27.353Z,4.77
2018-10-06T07:49:58.150Z,4.80
2018-10-06T07:52:28.835Z,6.60
2018-10-06T07:54:59.480Z,6.00
2018-10-06T07:57:30.154Z,5.43
2018-10-06T08:00:00.834Z,5.30
2018-10-06T08:02:31.474Z,8.27
2018-10-06T08:05:02.106Z,7.07
2018-10-06T08:07:32.854Z,6.40
2018-10-06T08:10:03.686Z,7.87
2018-10-06T08:12:34.243Z,8.03
2018-10-06T08:15:04.882Z,10.87
2018-10-06T08:17:35.782Z,8.83
2018-10-06T08:20:06.675Z,8.67
2018-10-06T08:22:37.435Z,8.97
2018-10-06T08:25:08.335Z,12.33
2018-10-06T08:27:39.114Z,9.77
2018-10-06T08:30:09.995Z,12.17
2018-10-06T08:32:40.778Z,20.87
2018-10-06T08:35:12.618Z,17.77
2018-10-06T08:37:43.415Z,12.13
2018-10-06T08:40:14.336Z,24.63
2018-10-06T08:42:45.141Z,16.50
2018-10-06T08:45:16.654Z,16.67
2018-10-06T08:47:47.412Z,16.30
2018-10-06T08:50:18.366Z,15.40
2018-10-06T08:52:49.548Z,15.17
2018-10-06T08:55:22.536Z,13.50
2018-10-06T08:57:53.314Z,14.30
2018-10-06T09:00:24.215Z,10.57
2018-10-06T09:02:55.367Z,7.60
2018-10-06T09:05:26.194Z,11.50
2018-10-06T09:07:57.073Z,8.70
2018-10-06T09:10:27.719Z,7.60
2018-10-06T09:12:58.395Z,9.37
2018-10-06T09:15:29.074Z,9.17
2018-10-06T09:17:59.779Z,7.23
2018-10-06T09:20:30.454Z,3.17
2018-10-06T09:23:01.099Z,1.70
2018-10-06T09:25:31.821Z,1.90
2018-10-06T09:28:02.418Z,3.87
2018-10-06T09:30:33.055Z,1.67
2018-10-06T09:33:03.825Z,2.10
2018-10-06T09:35:34.604Z,2.10
2018-10-06T09:38:05.318Z,2.73
2018-10-06T09:40:36.115Z,1.70
2018-10-06T09:43:07.093Z,3.20
2018-10-06T09:45:38.067Z,3.37
2018-10-06T09:48:08.800Z,3.17
2018-10-06T09:50:43.718Z,4.10
2018-10-06T09:53:14.547Z,4.00
2018-10-06T09:55:45.198Z,2.10
2018-10-06T09:58:15.989Z,2.27
2018-10-06T10:00:51.877Z,2.47
2018-10-06T10:03:27.643Z,3.33
2018-10-06T10:05:58.496Z,3.73
2018-10-06T10:08:29.395Z,2.80
2018-10-06T10:11:00.247Z,4.13
2018-10-06T10:13:31.069Z,3.10
2018-10-06T10:16:01.817Z,2.23
2018-10-06T10:18:32.847Z,3.53
2018-10-06T10:21:03.428Z,2.13
2018-10-06T10:23:34.468Z,2.80
2018-10-06T10:26:06.098Z,1.90
2018-10-06T10:28:36.840Z,2.83
2018-10-06T10:31:07.636Z,3.13
2018-10-06T10:33:41.252Z,3.70
2018-10-06T10:36:12.062Z,5.03
2018-10-06T10:38:42.997Z,3.10
2018-10-06T10:41:13.754Z,2.40
2018-10-06T10:43:44.644Z,2.53
2018-10-06T10:46:15.656Z,4.37
2018-10-06T10:48:46.506Z,2.60
2018-10-06T10:51:17.708Z,1.60
2018-10-06T10:53:48.605Z,2.73
2018-10-06T10:56:19.435Z,5.37
2018-10-06T10:58:50.269Z,2.50
2018-10-06T11:01:21.379Z,2.40
2018-10-06T11:03:52.250Z,2.40
2018-10-06T11:06:23.107Z,3.20
2018-10-06T11:08:54.035Z,2.43
2018-10-06T11:11:24.969Z,1.80
2018-10-06T11:13:56.114Z,2.23
2018-10-06T11:16:27.000Z,1.67
2018-10-06T11:18:57.827Z,2.17
2018-10-06T11:21:29.503Z,4.50
2018-10-06T11:24:00.399Z,1.90
2018-10-06T11:26:31.230Z,3.13
2018-10-06T11:29:02.078Z,4.67
2018-10-06T11:31:32.938Z,3.50
2018-10-06T11:34:03.717Z,3.17
2018-10-06T11:36:34.507Z,2.00
2018-10-06T11:39:06.480Z,2.43
2018-10-06T11:41:37.309Z,4.00
2018-10-06T11:44:08.287Z,2.17
2018-10-06T11:46:39.097Z,2.13
2018-10-06T11:49:10.026Z,4.87
2018-10-06T11:51:40.794Z,2.93
2018-10-06T11:54:11.638Z,3.90
2018-10-06T11:56:42.687Z,4.20
2018-10-06T11:59:13.869Z,3.60
2018-10-06T12:01:44.829Z,3.80
2018-10-06T12:04:15.670Z,2.50
2018-10-06T12:06:46.435Z,2.73
2018-10-06T12:09:17.392Z,3.30
2018-10-06T12:11:48.158Z,6.50
2018-10-06T12:14:18.980Z,3.70
2018-10-06T12:16:49.794Z,2.60
2018-10-06T12:19:20.655Z,3.63
2018-10-06T12:21:51.465Z,3.50
2018-10-06T12:24:22.382Z,3.43
2018-10-06T12:26:53.210Z,6.80
2018-10-06T12:29:24.083Z,4.53
2018-10-06T12:31:54.970Z,6.33
2018-10-06T12:34:25.776Z,4.50
2018-10-06T12:36:56.570Z,2.43
2018-10-06T12:39:28.339Z,4.13
2018-10-06T12:41:59.318Z,3.20
2018-10-06T12:44:30.269Z,6.67
2018-10-06T12:47:01.085Z,4.43
2018-10-06T12:49:32.148Z,4.67
2018-10-06T12:52:03.155Z,5.13
2018-10-06T12:54:34.041Z,4.70
2018-10-06T12:57:04.851Z,5.73
2018-10-06T12:59:35.738Z,3.47
2018-10-06T13:02:06.513Z,5.97
2018-10-06T13:04:38.019Z,2.77
2018-10-06T13:07:08.794Z,3.90
2018-10-06T13:09:40.186Z,6.57
2018-10-06T13:12:11.027Z,7.53
2018-10-06T13:14:41.785Z,7.93
2018-10-06T13:17:12.714Z,3.33
2018-10-06T13:19:43.393Z,6.47
2018-10-06T13:22:15.008Z,5.20
2018-10-06T13:24:45.746Z,5.60
2018-10-06T13:27:16.574Z,8.87
2018-10-06T13:29:47.354Z,4.43
2018-10-06T13:32:18.062Z,7.07
2018-10-06T13:34:48.863Z,2.77
2018-10-06T13:37:19.512Z,2.33
2018-10-06T13:39:50.298Z,3.67
2018-10-06T13:42:21.011Z,2.67
2018-10-06T13:44:51.693Z,2.30
2018-10-06T13:47:22.463Z,5.17
2018-10-06T13:49:53.447Z,6.63
2018-10-06T13:52:24.237Z,3.80
2018-10-06T13:54:54.997Z,4.40
2018-10-06T13:57:25.772Z,4.03
2018-10-06T13:59:56.596Z,4.03
2018-10-06T14:02:27.579Z,4.23
2018-10-06T14:04:58.234Z,4.57
2018-10-06T14:07:29.249Z,6.40
2018-10-06T14:10:00.064Z,4.80
2018-10-06T14:12:30.828Z,4.50
2018-10-06T14:15:01.706Z,2.23
2018-10-06T14:17:33.362Z,5.60
2018-10-06T14:20:04.354Z,6.60
2018-10-06T14:22:35.136Z,2.83
2018-10-06T14:25:06.067Z,5.77
2018-10-06T14:27:37.096Z,4.40
2018-10-06T14:30:07.921Z,5.30
2018-10-06T14:32:38.673Z,13.63
2018-10-06T14:35:09.537Z,2.60
2018-10-06T14:37:40.377Z,10.67
2018-10-06T14:40:11.738Z,5.60
2018-10-06T14:42:42.534Z,5.60
2018-10-06T14:45:13.410Z,3.83
2018-10-06T14:47:44.430Z,4.87
2018-10-06T14:50:15.225Z,3.27
2018-10-06T14:52:46.042Z,5.37
2018-10-06T14:55:16.845Z,3.13
2018-10-06T14:57:47.794Z,5.90
2018-10-06T15:00:18.634Z,1.83
2018-10-06T15:02:49.997Z,4.10
2018-10-06T15:05:21.143Z,5.90
2018-10-06T15:07:51.955Z,6.30
2018-10-06T15:10:23.227Z,1.97
2018-10-06T15:12:53.862Z,5.00
2018-10-06T15:15:24.597Z,7.23
2018-10-06T15:17:55.276Z,8.73
2018-10-06T15:20:25.976Z,4.43
2018-10-06T15:22:56.770Z,2.40
2018-10-06T15:25:27.593Z,4.27
2018-10-06T15:28:05.027Z,4.13
2018-10-06T15:30:36.266Z,6.40
2018-10-06T15:33:07.296Z,4.63
2018-10-06T15:35:38.030Z,5.47
2018-10-06T15:38:08.740Z,8.30
2018-10-06T15:40:39.538Z,5.87
2018-10-06T15:43:10.910Z,4.07
2018-10-06T15:45:41.582Z,5.80
2018-10-06T15:48:12.013Z,4.83
2018-10-06T15:50:49.558Z,3.37
2018-10-06T15:53:20.739Z,4.07
2018-10-06T15:55:51.531Z,4.47
2018-10-06T15:58:22.187Z,8.37
2018-10-06T16:00:52.994Z,5.03
2018-10-06T16:03:24.084Z,10.93
2018-10-06T16:05:54.823Z,6.50
2018-10-06T16:08:25.672Z,6.37
2018-10-06T16:10:56.398Z,6.20
2018-10-06T16:13:27.255Z,2.97
2018-10-06T16:15:58.180Z,4.57
2018-10-06T16:18:28.970Z,7.90
2018-10-06T16:20:59.941Z,4.57
2018-10-06T16:23:30.774Z,3.50
2018-10-06T16:26:01.674Z,2.53
2018-10-06T16:28:32.506Z,5.00
2018-10-06T16:31:03.523Z,3.13
2018-10-06T16:33:35.306Z,5.30
2018-10-06T16:36:06.183Z,5.40
2018-10-06T16:38:37.178Z,3.00
2018-10-06T16:41:08.067Z,2.83
2018-10-06T16:43:38.972Z,3.37
2018-10-06T16:46:09.788Z,6.90
2018-10-06T16:48:40.561Z,3.60
2018-10-06T16:51:11.563Z,2.87
2018-10-06T16:53:42.347Z,5.27
2018-10-06T16:56:13.267Z,2.20
2018-10-06T16:58:43.970Z,3.73
2018-10-06T17:01:14.727Z,2.90
2018-10-06T17:03:45.517Z,8.00
2018-10-06T17:06:17.213Z,4.10
2018-10-06T17:08:48.056Z,2.73
2018-10-06T17:11:18.916Z,3.57
2018-10-06T17:13:51.546Z,2.60
2018-10-06T17:16:22.687Z,5.23
2018-10-06T17:18:53.427Z,6.43
2018-10-06T17:21:24.278Z,4.27
2018-10-06T17:23:55.087Z,3.00
2018-10-06T17:26:26.204Z,5.53
2018-10-06T17:28:57.195Z,4.87
2018-10-06T17:31:28.092Z,4.03
2018-10-06T17:33:58.835Z,3.93
2018-10-06T17:36:29.791Z,4.50
2018-10-06T17:39:00.834Z,5.50
2018-10-06T17:41:31.686Z,5.67
2018-10-06T17:44:03.127Z,3.10
2018-10-06T17:46:34.074Z,4.60
2018-10-06T17:49:08.066Z,7.53
2018-10-06T17:51:39.397Z,4.53
2018-10-06T17:54:10.154Z,6.50
2018-10-06T17:56:41.916Z,6.63
2018-10-06T17:59:12.694Z,2.47
2018-10-06T18:01:44.502Z,11.70
2018-10-06T18:04:15.498Z,6.97
2018-10-06T18:06:46.407Z,7.40
2018-10-06T18:09:17.195Z,6.93
2018-10-06T18:11:48.046Z,4.23
2018-10-06T18:14:19.406Z,6.27
2018-10-06T18:16:50.535Z,7.63
2018-10-06T18:19:21.545Z,7.10
2018-10-06T18:21:53.083Z,5.30
2018-10-06T18:24:25.986Z,3.80
2018-10-06T18:26:56.908Z,7.63
2018-10-06T18:29:28.015Z,9.07
2018-10-06T18:32:00.099Z,6.13
2018-10-06T18:34:30.956Z,6.00
2018-10-06T18:37:01.817Z,5.37
2018-10-06T18:39:33.267Z,5.33
2018-10-06T18:42:05.987Z,5.90
2018-10-06T18:44:42.518Z,7.77
2018-10-06T18:47:13.951Z,7.83
2018-10-06T18:49:44.737Z,6.53
2018-10-06T18:52:15.635Z,9.30
2018-10-06T18:54:46.370Z,9.47
2018-10-06T18:57:17.436Z,7.23
2018-10-06T18:59:51.458Z,8.67
2018-10-06T19:02:22.926Z,7.30
2018-10-06T19:04:55.487Z,4.30
2018-10-06T19:07:27.135Z,4.17
2018-10-06T19:09:58.029Z,6.53
2018-10-06T19:12:28.829Z,9.07
2018-10-06T19:15:02.207Z,5.10
2018-10-06T19:17:33.474Z,3.63
2018-10-06T19:20:04.361Z,5.77
2018-10-06T19:22:35.206Z,5.17
2018-10-06T19:25:07.130Z,3.17
2018-10-06T19:27:37.807Z,7.43
2018-10-06T19:30:08.486Z,5.00
2018-10-06T19:32:39.279Z,5.97
2018-10-06T19:35:09.997Z,5.77
2018-10-06T19:37:40.705Z,4.87
2018-10-06T19:40:13.218Z,11.37
2018-10-06T19:42:44.895Z,7.20
2018-10-06T19:45:15.587Z,6.90
2018-10-06T19:47:46.310Z,6.50
2018-10-06T19:50:16.969Z,3.77
2018-10-06T19:52:47.675Z,11.90
2018-10-06T19:55:18.334Z,8.90
2018-10-06T19:57:49.054Z,8.37
2018-10-06T20:00:19.835Z,6.93
2018-10-06T20:02:50.862Z,9.00
2018-10-06T20:05:21.375Z,7.07
2018-10-06T20:07:52.427Z,6.17
2018-10-06T20:10:23.072Z,4.40
2018-10-06T20:12:53.776Z,5.87
2018-10-06T20:15:25.624Z,4.97
2018-10-06T20:18:00.693Z,6.27
2018-10-06T20:20:31.454Z,6.80
2018-10-06T20:23:02.438Z,4.53
2018-10-06T20:25:33.175Z,6.93
2018-10-06T20:28:04.098Z,3.80
2018-10-06T20:30:34.936Z,4.77
2018-10-06T20:33:05.748Z,7.20
2018-10-06T20:35:36.535Z,4.83
2018-10-06T20:38:07.589Z,5.67
2018-10-06T20:40:38.471Z,7.63
2018-10-06T20:43:09.359Z,7.80
2018-10-06T20:45:40.225Z,3.20
2018-10-06T20:48:11.239Z,7.47
2018-10-06T20:50:42.514Z,7.73
2018-10-06T20:53:13.343Z,4.37
2018-10-06T20:55:44.114Z,4.47
2018-10-06T20:58:14.951Z,10.07
2018-10-06T21:00:45.698Z,5.77
2018-10-06T21:03:16.591Z,10.23
2018-10-06T21:05:47.366Z,8.30
2018-10-06T21:08:18.162Z,3.67
2018-10-06T21:10:49.082Z,9.87
2018-10-06T21:13:19.905Z,14.57
2018-10-06T21:15:50.775Z,6.33
2018-10-06T21:18:21.797Z,8.73
2018-10-06T21:20:52.547Z,5.67
2018-10-06T21:23:23.633Z,9.13
2018-10-06T21:25:54.454Z,5.77
2018-10-06T21:28:25.279Z,5.60
2018-10-06T21:30:55.978Z,5.63
2018-10-06T21:33:26.762Z,4.27
2018-10-06T21:35:57.708Z,5.33
2018-10-06T21:38:28.575Z,5.10
2018-10-06T21:40:59.433Z,5.47
2018-10-06T21:43:30.533Z,4.93
2018-10-06T21:46:01.315Z,9.33
2018-10-06T21:48:32.174Z,5.13
2018-10-06T21:51:02.996Z,7.57
2018-10-06T21:53:33.713Z,4.00
2018-10-06T21:56:04.495Z,6.43
2018-10-06T21:58:35.335Z,6.43
2018-10-06T22:01:09.724Z,4.43
2018-10-06T22:03:41.341Z,13.00
2018-10-06T22:06:12.154Z,4.20
2018-10-06T22:08:43.033Z,5.13
2018-10-06T22:11:13.811Z,3.90
2018-10-06T22:13:44.647Z,5.37
2018-10-06T22:16:15.275Z,9.60
2018-10-06T22:18:46.014Z,8.60
2018-10-06T22:21:16.808Z,7.03
2018-10-06T22:23:47.534Z,4.50
2018-10-06T22:26:18.246Z,5.43
2018-10-06T22:28:48.953Z,8.50
2018-10-06T22:31:19.599Z,5.97
2018-10-06T22:33:50.295Z,6.93
2018-10-06T22:36:20.926Z,5.80
2018-10-06T22:38:51.566Z,7.53
2018-10-06T22:41:22.387Z,6.30
2018-10-06T22:43:53.226Z,13.13
2018-10-06T22:46:24.034Z,10.57
2018-10-06T22:48:54.814Z,6.63
2018-10-06T22:51:25.597Z,9.60
2018-10-06T22:53:56.459Z,4.07
2018-10-06T22:56:27.393Z,7.80
2018-10-06T22:58:58.390Z,5.20
2018-10-06T23:01:29.154Z,4.33
2018-10-06T23:03:59.982Z,5.47
2018-10-06T23:06:30.681Z,6.70
2018-10-06T23:09:01.530Z,13.67
2018-10-06T23:11:32.285Z,7.23
2018-10-06T23:14:03.054Z,7.43
2018-10-06T23:16:33.869Z,6.40
2018-10-06T23:19:05.056Z,6.20
2018-10-06T23:21:35.834Z,5.43
2018-10-06T23:24:06.743Z,7.50
2018-10-06T23:26:37.601Z,6.57
2018-10-06T23:29:08.439Z,6.27
2018-10-06T23:31:39.215Z,8.60
2018-10-06T23:34:09.987Z,7.00
2018-10-06T23:36:40.863Z,7.57
2018-10-06T23:39:11.667Z,7.53
2018-10-06T23:41:42.475Z,6.07
2018-10-06T23:44:13.337Z,7.87
2018-10-06T23:46:44.154Z,6.47
2018-10-06T23:49:15.034Z,14.10
2018-10-06T23:51:45.828Z,4.57
2018-10-06T23:54:16.647Z,5.97
2018-10-06T23:56:47.475Z,7.43
2018-10-06T23:59:18.334Z,6.07
